Latest Coastal Weather Observations for Yanakie

IDV60701

Issued at 11:11 am EST Wednesday 27 July 2016 (issued every 10 minutes, with the page automatically refreshed every 10 minutes)

About coastal observations | Map of coastal stations | Coastal observations for VIC | Marine services | Other Formats
Station Details ID: 085301 Name: YANAKIE Lat: -38.81 Lon: 146.19 Height: 13.3 m
Data from the previous 72 hours. | See also: Recent months at Yanakie
Date/Time
EST
Temp
°C
Wind Pressure Rain since
9am
mm
Weather Cloud Vis
km
Sea
Height
m
Swell
Dir  Spd
kts
Gust
kts
hPa Trend Height
m
Period
s
Dir
27/11:02am 9.4 SW 16 27 1012.8 - 0.0 - - - - - - -
27/11:00am 9.4 SW 17 27 1012.7 - 0.0 - - - - - - -
27/10:45am 11.4 WSW 16 26 1012.4 - 0.0 - - - - - - -
27/10:30am 10.6 WSW 15 23 1012.1 - 0.0 - - - - - - -
27/10:00am 10.3 SW 16 22 1011.8 - 0.0 - - - - - - -
27/09:39am 9.8 SW 16 27 1011.2 - 0.0 - - - - - - -
27/09:30am 10.3 SW 15 20 1010.8 - 0.0 - - - - - - -
27/09:00am 10.2 SW 17 25 1009.9 - 2.6 - - - - - - -
27/08:30am 10.0 SW 15 21 1008.9 - 2.6 - - - - - - -
27/08:00am 9.9 SW 19 26 1008.0 - 2.6 - - - - - - -
27/07:30am 8.7 WNW 17 24 1007.2 - 1.6 - - - - - - -
27/07:00am 8.9 NW 14 20 1006.2 - 0.4 - - - - - - -
27/06:30am 8.9 NW 17 23 1005.6 - 0.4 - - - - - - -
27/06:00am 9.2 NW 17 23 1005.1 - 0.4 - - - - - - -
27/05:30am 9.2 NW 16 21 1004.8 - 0.4 - - - - - - -
27/05:00am 9.0 NW 16 22 1004.4 - 0.4 - - - - - - -
27/04:30am 8.8 NW 14 19 1004.2 - 0.4 - - - - - - -
27/04:00am 8.4 NW 15 21 1003.9 - 0.4 - - - - - - -
27/03:30am 8.4 NW 16 22 1003.4 - 0.4 - - - - - - -
27/03:00am 8.9 NW 16 24 1003.5 - 0.4 - - - - - - -
27/02:30am 9.0 NW 16 26 1003.6 - 0.4 - - - - - - -
27/02:25am 9.0 NW 16 26 1003.5 - 0.4 - - - - - - -
27/02:00am 9.0 NW 14 22 1003.6 - 0.4 - - - - - - -
27/01:30am 9.3 NW 13 21 1003.6 - 0.4 - - - - - - -
27/01:00am 9.5 NW 15 21 1004.1 - 0.4 - - - - - - -
27/12:30am 9.5 NW 12 18 1004.3 - 0.4 - - - - - - -
27/12:00am 9.6 NW 12 21 1004.4 - 0.4 - - - - - - -
 
Date/Time
EST
Temp
°C
Wind Pressure Rain since
9am
mm
Weather Cloud Vis
km
Sea
Height
m
Swell
Dir  Spd
kts
Gust
kts
hPa Trend Height
m
Period
s
Dir
26/11:30pm 8.9 NNW 10 15 1004.6 - 0.4 - - - - - - -
26/11:00pm 9.0 NNW 13 20 1004.9 - 0.4 - - - - - - -
26/10:30pm 9.1 NNW 14 21 1005.0 - 0.4 - - - - - - -
26/10:00pm 9.2 NNW 13 23 1004.9 - 0.4 - - - - - - -
26/09:43pm 9.1 NNW 15 25 1004.9 - 0.4 - - - - - - -
26/09:30pm 8.6 NNW 15 23 1005.1 - 0.4 - - - - - - -
26/09:13pm 8.9 NNW 17 27 1005.3 - 0.4 - - - - - - -
26/09:00pm 8.7 NW 15 22 1005.6 - 0.4 - - - - - - -
26/08:30pm 8.6 NNW 15 21 1005.8 - 0.4 - - - - - - -
26/08:00pm 8.3 NNW 12 18 1006.1 - 0.4 - - - - - - -
26/07:30pm 8.1 NW 13 21 1006.3 - 0.4 - - - - - - -
26/07:00pm 8.4 NW 14 20 1006.4 - 0.4 - - - - - - -
26/06:30pm 7.9 NNW 11 18 1006.4 - 0.4 - - - - - - -
26/06:00pm 7.8 NW 12 15 1006.6 - 0.4 - - - - - - -
26/05:30pm 7.7 NNW 8 10 1006.7 - 0.4 - - - - - - -
26/05:00pm 8.6 NW 12 17 1006.9 - 0.4 - - - - - - -
26/04:30pm 9.1 NW 16 24 1007.2 - 0.4 - - - - - - -
26/04:00pm 8.9 NW 16 23 1007.5 - 0.4 - - - - - - -
26/03:30pm 9.2 NW 17 22 1007.9 - 0.4 - - - - - - -
26/03:00pm 9.3 NW 17 24 1007.9 - 0.4 - - - - - - -
26/02:36pm 9.4 NW 17 27 1007.9 - 0.4 - - - - - - -
26/02:30pm 9.3 NW 18 28 1008.1 - 0.4 - - - - - - -
26/02:12pm 9.3 NW 18 28 1008.2 - 0.4 - - - - - - -
26/02:00pm 9.4 NW 19 25 1008.7 - 0.4 - - - - - - -
26/01:39pm 9.6 NW 18 31 1008.7 - 0.4 - - - - - - -
26/01:30pm 9.8 NW 21 28 1009.0 - 0.4 - - - - - - -
26/01:01pm 9.7 NW 20 31 1009.2 - 0.4 - - - - - - -
26/01:00pm 9.7 NW 20 27 1009.2 - 0.4 - - - - - - -
26/12:31pm 9.5 NW 23 33 1009.5 - 0.4 - - - - - - -
26/12:30pm 9.4 NW 24 33 1009.5 - 0.4 - - - - - - -
26/12:00pm 9.1 NW 22 32 1009.5 - 0.4 - - - - - - -
26/11:30am 8.9 NW 21 31 1009.8 - 0.4 - - - - - - -
26/11:22am 8.8 NW 19 30 1009.6 - 0.4 - - - - - - -
26/11:00am 8.5 NW 20 27 1009.7 - 0.4 - - - - - - -
26/10:30am 8.5 NW 22 31 1009.4 - 0.4 - - - - - - -
26/10:21am 8.2 NW 16 26 1009.4 - 0.4 - - - - - - -
26/10:00am 7.0 NW 20 28 1009.7 - 0.4 - - - - - - -
26/09:30am 7.3 NW 18 25 1009.5 - 0.2 - - - - - - -
26/09:00am 6.6 NW 14 20 1009.7 - 15.8 Recent precip. - - - - - -
26/08:30am 6.5 NW 14 19 1009.5 - 15.6 - - - - - - -
26/08:00am 6.9 NW 19 26 1009.0 - 14.8 - - - - - - -
26/07:30am 6.5 NW 19 25 1008.5 - 14.8 - - - - - - -
26/07:00am 6.1 WNW 19 28 1008.4 - 14.8 - - - - - - -
26/06:30am 6.2 WNW 12 20 1007.8 - 13.8 - - - - - - -
26/06:00am 6.2 NW 21 27 1007.2 - 13.2 Recent precip. - - - - - -
26/05:31am 6.4 WNW 22 32 1007.0 - 12.8 - - - - - - -
26/05:30am 6.4 WNW 23 32 1006.9 - 12.8 - - - - - - -
26/05:21am 6.5 NW 21 32 1006.6 - 12.6 - - - - - - -
26/05:00am 6.8 NW 22 32 1006.0 - 12.2 - - - - - - -
26/04:30am 6.3 WNW 19 31 1006.1 - 12.2 - - - - - - -
26/04:16am 6.5 WNW 23 33 1005.8 - 11.4 - - - - - - -
26/04:00am 6.9 WNW 20 28 1005.5 - 10.4 - - - - - - -
26/03:33am 6.4 NW 18 29 1005.1 - 10.2 - - - - - - -
26/03:30am 6.2 NW 18 27 1005.1 - 10.2 - - - - - - -
26/03:00am 4.8 WNW 23 36 1005.2 - 9.6 Rain - - - - - -
26/02:53am 4.4 WNW 25 36 1005.5 - 9.2 - - - - - - -
26/02:48am 4.0 WNW 29 41 1005.4 - 9.0 - - - - - - -
26/02:39am 3.6 WNW 29 45 1006.0 - 8.4 - - - - - - -
26/02:37am 4.7 WNW 26 45 1005.7 - 8.0 - - - - - - -
26/02:30am 7.3 NW 23 34 1004.8 - 7.4 - - - - - - -
26/02:27am 7.3 NW 22 34 1004.7 - 7.4 - - - - - - -
26/02:00am 6.4 NW 18 25 1004.7 - 7.4 - - - - - - -
26/01:34am 7.0 WNW 22 33 1004.7 - 7.4 - - - - - - -
26/01:30am 7.2 WNW 23 33 1004.5 - 7.4 - - - - - - -
26/01:17am 7.5 NW 23 33 1004.3 - 7.4 - - - - - - -
26/01:00am 7.5 NW 22 31 1004.3 - 7.4 - - - - - - -
26/12:35am 7.4 NW 23 34 1004.2 - 7.4 - - - - - - -
26/12:30am 7.7 NW 22 29 1004.1 - 7.4 - - - - - - -
26/12:10am 7.7 NW 27 37 1003.6 - 7.4 - - - - - - -
26/12:00am 7.8 NW 25 34 1003.5 - 7.4 - - - - - - -
 
Date/Time
EST
Temp
°C
Wind Pressure Rain since
9am
mm
Weather Cloud Vis
km
Sea
Height
m
Swell
Dir  Spd
kts
Gust
kts
hPa Trend Height
m
Period
s
Dir
25/11:38pm 8.1 WNW 22 32 1003.5 - 7.4 - - - - - - -
25/11:30pm 8.0 WNW 23 32 1003.5 - 7.4 - - - - - - -
25/11:00pm 8.1 WNW 21 30 1003.0 - 7.4 - - - - - - -
25/10:30pm 8.4 WNW 23 35 1002.9 - 7.4 - - - - - - -
25/10:01pm 8.5 NW 21 33 1002.5 - 7.4 - - - - - - -
25/10:00pm 8.5 NW 21 30 1002.7 - 7.4 - - - - - - -
25/09:31pm 8.6 WNW 21 33 1002.0 - 7.4 - - - - - - -
25/09:30pm 8.5 WNW 21 30 1002.0 - 7.4 - - - - - - -
25/09:21pm 8.3 WNW 20 31 1002.2 - 7.4 - - - - - - -
25/09:00pm 8.7 NW 20 30 1002.1 - 7.4 Recent precip. - - - - - -
25/08:30pm 7.2 WNW 27 45 1002.2 - 6.4 - - - - - - -
25/08:20pm 9.4 NW 24 35 1001.5 - 5.8 - - - - - - -
25/08:00pm 9.5 NW 24 33 1001.1 - 5.8 - - - - - - -
25/07:30pm 8.7 NW 22 30 1000.9 - 5.8 - - - - - - -
25/07:00pm 9.1 WNW 23 35 1001.8 - 4.4 - - - - - - -
25/06:53pm 9.4 NW 22 35 1001.4 - 3.2 - - - - - - -
25/06:30pm 10.3 NNW 22 32 999.7 - 0.2 - - - - - - -
25/06:03pm 11.0 NNW 21 32 999.2 - 0.0 - - - - - - -
25/06:00pm 10.8 NNW 21 30 999.2 - 0.0 - - - - - - -
25/05:30pm 11.5 NNW 20 34 999.8 - 0.0 - - - - - - -
25/05:01pm 11.5 NNW 20 32 1000.1 - 0.0 - - - - - - -
25/05:00pm 11.3 NNW 19 27 1000.3 - 0.0 - - - - - - -
25/04:30pm 11.4 NNW 21 36 1000.4 - 0.0 - - - - - - -
25/04:03pm 11.3 NNW 19 29 1001.0 - 0.0 - - - - - - -
25/04:00pm 11.2 NNW 19 28 1001.1 - 0.0 - - - - - - -
25/03:30pm 11.4 NNW 16 26 1001.5 - 0.0 - - - - - - -
25/03:22pm 11.6 NNW 15 26 1001.6 - 0.0 - - - - - - -
25/03:00pm 11.5 NW 17 26 1002.7 - 0.0 - - - - - - -
25/02:33pm 12.4 NW 18 28 1002.7 - 0.0 - - - - - - -
25/02:30pm 12.3 NW 19 28 1002.8 - 0.0 - - - - - - -
25/02:24pm 12.4 NW 18 28 1002.8 - 0.0 - - - - - - -
25/02:00pm 12.1 NW 19 27 1003.3 - 0.0 - - - - - - -
25/01:30pm 12.5 NW 21 27 1003.6 - 0.0 - - - - - - -
25/01:00pm 11.3 NW 17 25 1004.4 - 0.0 - - - - - - -
25/12:30pm 11.3 NW 19 27 1004.6 - 0.0 - - - - - - -
25/12:00pm 11.6 NW 20 30 1005.1 - 0.0 - - - - - - -
25/11:30am 10.9 WNW 19 25 1005.3 - 0.0 - - - - - - -
25/11:00am 10.8 NW 19 25 1005.4 - 0.0 - - - - - - -
25/10:30am 10.4 NW 19 26 1005.6 - 0.0 - - - - - - -
25/10:00am 9.9 NW 21 30 1005.4 - 0.0 - - - - - - -
25/09:53am 9.9 NW 19 30 1005.4 - 0.0 - - - - - - -
25/09:30am 9.8 NW 18 26 1005.4 - 0.0 - - - - - - -
25/09:00am 9.2 NW 19 26 1005.1 - 0.0 - - - - - - -
25/08:30am 9.2 NW 20 27 1004.9 - 0.0 - - - - - - -
25/08:00am 8.7 NW 15 22 1004.9 - 0.0 - - - - - - -
25/07:30am 8.4 NW 16 23 1004.6 - 0.0 - - - - - - -
25/07:00am 8.4 NW 17 22 1004.3 - 0.0 - - - - - - -
25/06:30am 8.7 NW 16 23 1004.1 - 0.0 - - - - - - -
25/06:00am 8.6 NW 15 21 1003.8 - 0.0 - - - - - - -
25/05:30am 8.4 NW 15 23 1003.8 - 0.0 - - - - - - -
25/05:00am 8.1 NW 14 19 1003.7 - 0.0 - - - - - - -
25/04:30am 8.1 NW 13 19 1003.3 - 0.0 - - - - - - -
25/04:00am 7.9 NNW 12 18 1003.1 - 0.0 - - - - - - -
25/03:30am 7.6 NNW 14 20 1003.2 - 0.0 - - - - - - -
25/03:00am 7.5 NW 14 20 1003.3 - 0.0 - - - - - - -
25/02:30am 7.5 NW 11 15 1003.5 - 0.0 - - - - - - -
25/02:00am 7.6 NNW 10 14 1003.6 - 0.0 - - - - - - -
25/01:30am 7.7 NW 11 17 1003.6 - 0.0 - - - - - - -
25/01:00am 7.8 NNW 10 14 1003.6 - 0.0 - - - - - - -
25/12:30am 8.1 NNW 13 19 1003.5 - 0.0 - - - - - - -
25/12:00am 8.1 NNW 13 19 1003.8 - 0.0 - - - - - - -
 
Date/Time
EST
Temp
°C
Wind Pressure Rain since
9am
mm
Weather Cloud Vis
km
Sea
Height
m
Swell
Dir  Spd
kts
Gust
kts
hPa Trend Height
m
Period
s
Dir
24/11:30pm 8.3 NNW 12 16 1003.8 - 0.0 - - - - - - -
24/11:00pm 8.5 NNW 12 19 1003.8 - 0.0 - - - - - - -
24/10:30pm 7.8 N 7 11 1003.8 - 0.0 - - - - - - -
24/10:00pm 7.7 N 5 8 1004.1 - 0.0 - - - - - - -
24/09:30pm 7.7 N 4 7 1004.3 - 0.0 - - - - - - -
24/09:00pm 7.5 NNE 5 7 1004.3 - 0.0 - - - - - - -
24/08:30pm 7.5 NNE 4 6 1004.7 - 0.0 - - - - - - -
24/08:00pm 7.9 NNE 5 7 1004.7 - 0.0 - - - - - - -
24/07:30pm 8.4 NNE 4 6 1005.0 - 0.0 - - - - - - -
24/07:00pm 9.0 N 4 7 1005.1 - 0.0 - - - - - - -
24/06:30pm 8.6 N 4 7 1005.1 - 0.0 - - - - - - -
24/06:00pm 8.9 NNW 8 12 1005.3 - 0.0 - - - - - - -
24/05:30pm 9.0 NNW 9 13 1005.4 - 0.0 - - - - - - -
24/05:00pm 9.1 NNW 9 13 1005.5 - 0.0 - - - - - - -
24/04:30pm 9.4 NNW 12 19 1005.7 - 0.0 - - - - - - -
24/04:00pm 9.7 NW 12 19 1005.9 - 0.0 - - - - - - -
24/03:30pm 10.5 NW 16 22 1006.0 - 0.0 - - - - - - -
24/03:00pm 10.4 NW 14 19 1006.1 - 0.0 - - - - - - -
24/02:30pm 10.4 NNW 14 22 1006.3 - 0.0 - - - - - - -
24/02:00pm 10.5 NW 14 23 1006.6 - 0.0 - - - - - - -
24/01:30pm 10.1 NW 11 15 1006.9 - 0.0 - - - - - - -
24/01:00pm 9.9 NNW 12 18 1007.5 - 0.0 - - - - - - -
24/12:30pm 10.3 NW 13 19 1007.8 - 0.0 - - - - - - -
24/12:00pm 10.5 NW 16 22 1008.3 - 0.0 - - - - - - -
24/11:30am 10.3 NW 13 19 1008.8 - 0.0 - - - - - - -

Other Formats:

Comma delimited format used in spreadsheet applications
http://www.bom.gov.au/fwo/IDV60701/IDV60701.94911.axf

JavaScript Object Notation format (JSON) in row-major order
http://www.bom.gov.au/fwo/IDV60701/IDV60701.94911.json